createdAt,value
2022-09-12T00:00:31.836Z,15.46
2022-09-12T00:02:39.889Z,15.48
2022-09-12T00:04:44.746Z,15.49
2022-09-12T00:06:49.507Z,15.48
2022-09-12T00:08:57.282Z,15.49
2022-09-12T00:11:07.837Z,15.47
2022-09-12T00:13:14.191Z,15.46
2022-09-12T00:15:19.002Z,15.49
2022-09-12T00:17:23.722Z,15.50
2022-09-12T00:19:33.556Z,15.49
2022-09-12T00:21:40.581Z,15.46
2022-09-12T00:23:45.451Z,15.39
2022-09-12T00:25:51.148Z,15.39
2022-09-12T00:27:56.046Z,15.40
2022-09-12T00:30:00.781Z,15.37
2022-09-12T00:32:05.706Z,15.32
2022-09-12T00:34:10.453Z,15.30
2022-09-12T00:36:19.723Z,15.31
2022-09-12T00:38:24.702Z,15.29
2022-09-12T00:40:30.161Z,15.27
2022-09-12T00:42:34.926Z,15.28
2022-09-12T00:44:52.762Z,15.28
2022-09-12T00:47:01.178Z,15.25
2022-09-12T00:49:10.567Z,15.21
2022-09-12T00:51:19.157Z,15.17
2022-09-12T00:53:24.218Z,15.15
2022-09-12T00:55:33.912Z,15.14
2022-09-12T00:57:43.252Z,15.12
2022-09-12T00:59:52.057Z,15.12
2022-09-12T01:01:59.119Z,15.08
2022-09-12T01:04:04.749Z,15.09
2022-09-12T01:06:14.690Z,15.05
2022-09-12T01:08:23.426Z,14.98
2022-09-12T01:10:28.236Z,14.89
2022-09-12T01:12:34.436Z,14.82
2022-09-12T01:14:40.143Z,14.81
2022-09-12T01:16:45.438Z,14.83
2022-09-12T01:19:03.709Z,14.87
2022-09-12T01:21:21.604Z,14.90
2022-09-12T01:24:19.478Z,14.91
2022-09-12T01:27:08.566Z,14.89
2022-09-12T01:29:34.913Z,14.84
2022-09-12T01:31:48.357Z,14.85
2022-09-12T01:34:03.972Z,14.80
2022-09-12T01:36:38.274Z,14.78
2022-09-12T01:38:50.314Z,14.69
2022-09-12T01:41:02.547Z,14.69
2022-09-12T01:43:16.119Z,14.71
2022-09-12T01:45:28.229Z,14.65
2022-09-12T01:47:42.753Z,14.61
2022-09-12T01:49:56.083Z,14.55
2022-09-12T01:52:07.168Z,14.56
2022-09-12T01:54:16.274Z,14.59
2022-09-12T01:56:26.006Z,14.65
2022-09-12T01:58:36.499Z,14.57
2022-09-12T02:00:49.059Z,14.48
2022-09-12T02:03:03.096Z,14.49
2022-09-12T02:05:12.969Z,14.53
2022-09-12T02:07:22.835Z,14.50
2022-09-12T02:09:32.892Z,14.43
2022-09-12T02:11:42.609Z,14.41
2022-09-12T02:13:53.429Z,14.43
2022-09-12T02:16:06.070Z,14.46
2022-09-12T02:18:18.143Z,14.47
2022-09-12T02:20:46.823Z,14.45
2022-09-12T02:22:55.812Z,14.38
2022-09-12T02:25:03.276Z,14.33
2022-09-12T02:27:12.904Z,14.30
2022-09-12T02:29:18.065Z,14.29
2022-09-12T02:31:25.918Z,14.23
2022-09-12T02:33:41.615Z,14.21
2022-09-12T02:35:49.336Z,14.14
2022-09-12T02:38:00.740Z,14.14
2022-09-12T02:40:07.183Z,14.14
2022-09-12T02:42:12.093Z,14.19
2022-09-12T02:44:16.942Z,14.16
2022-09-12T02:46:26.557Z,14.17
2022-09-12T02:48:41.476Z,14.15
2022-09-12T02:50:46.883Z,14.14
2022-09-12T02:52:53.813Z,14.17
2022-09-12T02:55:00.326Z,14.18
2022-09-12T02:57:05.124Z,14.15
2022-09-12T02:59:12.584Z,14.15
2022-09-12T03:01:31.873Z,14.17
2022-09-12T03:03:59.162Z,14.16
2022-09-12T03:06:11.217Z,14.11
2022-09-12T03:08:34.311Z,14.12
2022-09-12T03:10:48.902Z,14.11
2022-09-12T03:13:06.689Z,14.08
2022-09-12T03:15:21.752Z,14.05
2022-09-12T03:17:38.805Z,14.00
2022-09-12T03:19:57.733Z,13.97
2022-09-12T03:22:12.251Z,13.94
2022-09-12T03:24:21.523Z,13.93
2022-09-12T03:26:31.198Z,13.95
2022-09-12T03:28:40.492Z,13.91
2022-09-12T03:30:47.421Z,13.90
2022-09-12T03:32:54.693Z,13.87
2022-09-12T03:35:01.985Z,13.85
2022-09-12T03:37:06.986Z,13.83
2022-09-12T03:39:11.768Z,13.83
2022-09-12T03:41:16.633Z,13.81
2022-09-12T03:43:21.829Z,13.78
2022-09-12T03:45:26.423Z,13.74
2022-09-12T03:47:31.302Z,13.66
2022-09-12T03:49:36.098Z,13.62
2022-09-12T03:51:44.062Z,13.63
2022-09-12T03:53:48.793Z,13.51
2022-09-12T03:55:53.573Z,13.35
2022-09-12T03:57:58.799Z,13.30
2022-09-12T04:00:04.405Z,13.25
2022-09-12T04:02:17.262Z,13.20
2022-09-12T04:04:22.112Z,13.25
2022-09-12T04:06:26.824Z,13.28
2022-09-12T04:08:34.164Z,13.27
2022-09-12T04:10:38.902Z,13.27
2022-09-12T04:12:43.691Z,13.27
2022-09-12T04:14:48.919Z,13.27
2022-09-12T04:16:53.543Z,13.24
2022-09-12T04:18:58.389Z,13.13
2022-09-12T04:21:07.062Z,13.11
2022-09-12T04:23:11.808Z,13.13
2022-09-12T04:25:19.254Z,13.13
2022-09-12T04:27:24.033Z,13.15
2022-09-12T04:29:29.590Z,13.18
2022-09-12T04:31:34.351Z,13.18
2022-09-12T04:33:39.339Z,13.18
2022-09-12T04:35:45.435Z,13.16
2022-09-12T04:37:50.179Z,13.19
2022-09-12T04:39:57.915Z,13.22
2022-09-12T04:42:05.578Z,13.27
2022-09-12T04:44:13.945Z,13.32
2022-09-12T04:46:20.538Z,13.36
2022-09-12T04:48:25.268Z,13.39
2022-09-12T04:50:30.051Z,13.46
2022-09-12T04:52:34.788Z,13.50
2022-09-12T04:54:40.362Z,13.54
2022-09-12T04:56:48.291Z,13.57
2022-09-12T04:58:55.777Z,13.64
2022-09-12T05:01:07.026Z,13.69
2022-09-12T05:03:12.174Z,13.70
2022-09-12T05:05:17.579Z,13.72
2022-09-12T05:07:22.355Z,13.72
2022-09-12T05:09:27.360Z,13.66
2022-09-12T05:12:02.076Z,13.59
2022-09-12T05:14:01.870Z,13.69
2022-09-12T05:16:08.737Z,13.75
2022-09-12T05:18:13.654Z,13.84
2022-09-12T05:20:18.666Z,13.89
2022-09-12T05:22:23.416Z,13.94
2022-09-12T05:24:29.347Z,13.98
2022-09-12T05:26:34.111Z,14.05
2022-09-12T05:28:41.058Z,14.09
2022-09-12T05:30:51.617Z,14.15
2022-09-12T05:32:56.416Z,14.21
2022-09-12T05:35:01.216Z,14.27
2022-09-12T05:37:06.340Z,14.30
2022-09-12T05:39:11.317Z,14.29
2022-09-12T05:41:21.878Z,14.33
2022-09-12T05:43:29.411Z,14.38
2022-09-12T05:45:35.042Z,14.43
2022-09-12T05:47:43.960Z,14.48
2022-09-12T05:49:51.342Z,14.52
2022-09-12T05:51:56.424Z,14.59
2022-09-12T05:54:03.798Z,14.60
2022-09-12T05:56:10.147Z,14.64
2022-09-12T05:58:15.032Z,14.63
2022-09-12T06:00:21.387Z,14.62
2022-09-12T06:02:26.728Z,14.65
2022-09-12T06:04:34.289Z,14.73
2022-09-12T06:06:42.158Z,14.78
2022-09-12T06:08:48.616Z,14.78
2022-09-12T06:10:53.367Z,14.81
2022-09-12T06:12:58.160Z,14.85
2022-09-12T06:15:02.923Z,14.90
2022-09-12T06:17:08.063Z,14.95
2022-09-12T06:19:17.778Z,15.02
2022-09-12T06:21:26.660Z,15.00
2022-09-12T06:23:31.404Z,15.09
2022-09-12T06:25:36.223Z,15.18
2022-09-12T06:27:40.995Z,15.21
2022-09-12T06:29:46.236Z,15.25
2022-09-12T06:31:50.766Z,15.26
2022-09-12T06:33:57.427Z,15.30
2022-09-12T06:36:11.555Z,15.32
2022-09-12T06:38:19.844Z,15.29
2022-09-12T06:40:24.660Z,15.29
2022-09-12T06:42:29.477Z,15.29
2022-09-12T06:44:35.115Z,15.25
2022-09-12T06:46:39.852Z,15.26
2022-09-12T06:48:45.297Z,15.32
2022-09-12T06:50:58.434Z,15.36
2022-09-12T06:53:03.278Z,15.31
2022-09-12T06:55:11.493Z,15.35
2022-09-12T06:57:18.151Z,15.40
2022-09-12T06:59:22.990Z,15.43
2022-09-12T07:01:29.299Z,15.53
2022-09-12T07:03:35.425Z,15.63
2022-09-12T07:05:40.358Z,15.64
2022-09-12T07:07:45.137Z,15.68
2022-09-12T07:09:50.456Z,15.69
2022-09-12T07:11:57.830Z,15.62
2022-09-12T07:14:04.084Z,15.62
2022-09-12T07:16:10.195Z,15.71
2022-09-12T07:18:14.980Z,15.80
2022-09-12T07:20:19.838Z,15.86
2022-09-12T07:22:24.624Z,15.96
2022-09-12T07:24:29.395Z,16.06
2022-09-12T07:26:34.201Z,16.13
2022-09-12T07:28:42.407Z,16.15
2022-09-12T07:30:47.230Z,16.19
2022-09-12T07:32:55.503Z,16.21
2022-09-12T07:35:00.236Z,16.26
2022-09-12T07:37:05.087Z,16.35
2022-09-12T07:39:09.853Z,16.39
2022-09-12T07:41:15.077Z,16.34
2022-09-12T07:43:19.613Z,16.33
2022-09-12T07:45:27.054Z,16.38
2022-09-12T07:47:31.793Z,16.44
2022-09-12T07:49:36.693Z,16.45
2022-09-12T07:51:41.465Z,16.56
2022-09-12T07:53:46.487Z,16.64
2022-09-12T07:55:56.350Z,16.62
2022-09-12T07:58:01.399Z,16.42
2022-09-12T08:00:08.971Z,16.36
2022-09-12T08:02:19.727Z,16.35
2022-09-12T08:04:24.907Z,16.35
2022-09-12T08:06:32.325Z,16.32
2022-09-12T08:08:37.557Z,16.24
2022-09-12T08:10:42.445Z,16.19
2022-09-12T08:12:48.962Z,16.20
2022-09-12T08:14:53.759Z,16.29
2022-09-12T08:16:58.557Z,16.41
2022-09-12T08:19:07.193Z,16.42
2022-09-12T08:21:17.761Z,16.51
2022-09-12T08:23:23.605Z,16.50
2022-09-12T08:25:28.779Z,16.49
2022-09-12T08:27:33.297Z,16.46
2022-09-12T08:29:38.041Z,16.37
2022-09-12T08:31:42.874Z,16.39
2022-09-12T08:33:50.947Z,16.48
2022-09-12T08:36:05.961Z,16.48
2022-09-12T08:38:10.710Z,16.55
2022-09-12T08:40:19.914Z,16.60
2022-09-12T08:42:35.015Z,16.74
2022-09-12T08:44:56.311Z,16.87
2022-09-12T08:47:17.658Z,16.86
2022-09-12T08:49:31.223Z,16.92
2022-09-12T08:51:39.870Z,16.89
2022-09-12T08:53:51.004Z,16.95
2022-09-12T08:55:59.300Z,17.05
2022-09-12T08:58:08.194Z,17.14
2022-09-12T09:00:17.501Z,17.16
2022-09-12T09:02:48.693Z,17.28
2022-09-12T09:04:55.843Z,17.10
2022-09-12T09:07:26.008Z,17.36
2022-09-12T09:09:45.405Z,17.43
2022-09-12T09:12:00.604Z,17.52
2022-09-12T09:14:31.218Z,17.57
2022-09-12T09:16:39.299Z,17.64
2022-09-12T09:18:47.567Z,17.74
2022-09-12T09:20:56.195Z,17.86
2022-09-12T09:23:11.230Z,17.95
2022-09-12T09:25:23.025Z,18.04
2022-09-12T09:27:40.834Z,18.08
2022-09-12T09:29:50.548Z,18.14
2022-09-12T09:31:57.916Z,18.26
2022-09-12T09:34:03.357Z,18.40
2022-09-12T09:36:22.535Z,18.45
2022-09-12T09:38:43.648Z,18.46
2022-09-12T09:40:57.754Z,18.54
2022-09-12T09:43:09.106Z,18.60
2022-09-12T09:45:19.667Z,18.72
2022-09-12T09:47:24.642Z,18.84
2022-09-12T09:49:31.762Z,18.94
2022-09-12T09:51:38.652Z,18.88
2022-09-12T09:53:51.103Z,19.02
2022-09-12T09:55:58.816Z,19.02
2022-09-12T09:58:04.156Z,18.99
2022-09-12T10:00:25.054Z,19.05
2022-09-12T10:02:29.880Z,19.25
2022-09-12T10:04:41.205Z,19.41
2022-09-12T10:06:49.029Z,19.55
2022-09-12T10:09:20.191Z,19.74
2022-09-12T10:11:27.104Z,19.85
2022-09-12T10:13:42.503Z,19.86
2022-09-12T10:16:00.409Z,19.90
2022-09-12T10:18:05.568Z,19.99
2022-09-12T10:20:31.764Z,20.03
2022-09-12T10:22:36.577Z,20.12
2022-09-12T10:24:45.671Z,20.23
2022-09-12T10:26:57.112Z,20.33
2022-09-12T10:29:09.799Z,20.48
2022-09-12T10:31:18.523Z,20.65
2022-09-12T10:33:23.904Z,20.72
2022-09-12T10:35:33.905Z,20.86
2022-09-12T10:37:41.191Z,20.90
2022-09-12T10:39:55.496Z,20.80
2022-09-12T10:42:00.376Z,20.69
2022-09-12T10:44:10.914Z,20.82
2022-09-12T10:46:31.302Z,20.89
2022-09-12T10:48:36.346Z,20.88
2022-09-12T10:50:43.542Z,20.82
2022-09-12T10:52:51.224Z,20.87
2022-09-12T10:54:58.771Z,21.00
2022-09-12T10:57:28.349Z,20.99
2022-09-12T10:59:43.878Z,21.08
2022-09-12T11:01:52.135Z,21.11
2022-09-12T11:04:31.853Z,21.21
2022-09-12T11:06:45.944Z,21.23
2022-09-12T11:09:00.509Z,21.12
2022-09-12T11:11:15.929Z,21.15
2022-09-12T11:13:32.862Z,21.33
2022-09-12T11:16:02.648Z,21.54
2022-09-12T11:18:20.250Z,21.72
2022-09-12T11:20:40.157Z,21.75
2022-09-12T11:23:06.530Z,21.82
2022-09-12T11:25:22.454Z,21.77
2022-09-12T11:27:48.958Z,21.89
2022-09-12T11:29:57.420Z,21.92
2022-09-12T11:32:28.015Z,21.97
2022-09-12T11:34:43.291Z,22.07
2022-09-12T11:37:10.960Z,22.10
2022-09-12T11:39:18.860Z,22.11
2022-09-12T11:41:29.567Z,22.15
2022-09-12T11:43:42.631Z,22.27
2022-09-12T11:45:48.942Z,22.21
2022-09-12T11:47:58.371Z,22.27
2022-09-12T11:50:07.216Z,22.31
2022-09-12T11:52:17.634Z,22.37
2022-09-12T11:54:27.438Z,22.45
2022-09-12T11:56:32.285Z,22.48
2022-09-12T11:58:41.966Z,22.50
2022-09-12T12:00:51.026Z,22.62
2022-09-12T12:03:05.963Z,22.68
2022-09-12T12:05:23.439Z,22.65
2022-09-12T12:07:28.332Z,22.65
2022-09-12T12:09:33.605Z,22.64
2022-09-12T12:11:42.326Z,22.75
2022-09-12T12:13:55.747Z,22.88
2022-09-12T12:16:04.292Z,22.85
2022-09-12T12:18:11.266Z,22.81
2022-09-12T12:20:20.496Z,22.79
2022-09-12T12:22:27.333Z,22.92
2022-09-12T12:24:32.160Z,23.03
2022-09-12T12:26:56.739Z,23.16
2022-09-12T12:29:05.130Z,23.22
2022-09-12T12:31:10.653Z,23.19
2022-09-12T12:33:45.399Z,23.30
2022-09-12T12:36:07.288Z,23.46
2022-09-12T12:38:31.065Z,23.51
2022-09-12T12:40:35.959Z,23.48
2022-09-12T12:43:31.549Z,23.38
2022-09-12T12:46:12.135Z,23.33
2022-09-12T12:48:22.317Z,23.26
2022-09-12T12:50:29.400Z,23.31
2022-09-12T12:52:36.254Z,23.41
2022-09-12T12:54:59.499Z,23.45
2022-09-12T12:57:19.820Z,23.48
2022-09-12T12:59:26.483Z,23.49
2022-09-12T13:01:40.142Z,23.57
2022-09-12T13:03:50.431Z,23.64
2022-09-12T13:06:03.341Z,23.63
2022-09-12T13:08:12.911Z,23.45
2022-09-12T13:10:27.086Z,23.58
2022-09-12T13:12:35.306Z,23.73
2022-09-12T13:14:52.917Z,23.87
2022-09-12T13:17:01.302Z,23.94
2022-09-12T13:19:18.580Z,24.06
2022-09-12T13:21:24.112Z,24.09
2022-09-12T13:23:31.227Z,24.09
2022-09-12T13:25:38.158Z,24.12
2022-09-12T13:27:42.910Z,24.05
2022-09-12T13:29:47.821Z,23.92
2022-09-12T13:31:54.409Z,23.70
2022-09-12T13:34:04.328Z,23.62
2022-09-12T13:36:25.048Z,23.59
2022-09-12T13:38:40.673Z,23.49
2022-09-12T13:40:57.482Z,23.58
2022-09-12T13:43:16.991Z,23.70
2022-09-12T13:45:27.058Z,23.76
2022-09-12T13:47:35.657Z,23.86
2022-09-12T13:49:43.567Z,23.88
2022-09-12T13:52:01.170Z,24.06
2022-09-12T13:54:08.196Z,24.20
2022-09-12T13:56:19.473Z,24.28
2022-09-12T13:58:27.171Z,24.31
2022-09-12T14:00:35.053Z,24.33
2022-09-12T14:02:42.668Z,24.39
2022-09-12T14:05:02.613Z,24.37
2022-09-12T14:07:16.769Z,24.43
2022-09-12T14:09:27.027Z,24.42
2022-09-12T14:11:34.047Z,24.50
2022-09-12T14:13:39.032Z,24.54
2022-09-12T14:15:46.920Z,24.49
2022-09-12T14:17:57.984Z,24.51
2022-09-12T14:20:04.446Z,24.67
2022-09-12T14:22:18.163Z,24.65
2022-09-12T14:24:24.439Z,24.62
2022-09-12T14:26:32.489Z,24.66
2022-09-12T14:28:37.902Z,24.73
2022-09-12T14:30:43.268Z,24.48
2022-09-12T14:33:05.813Z,24.36
2022-09-12T14:35:22.052Z,24.33
2022-09-12T14:37:29.587Z,24.27
2022-09-12T14:39:36.366Z,24.33
2022-09-12T14:41:44.193Z,24.39
2022-09-12T14:43:53.440Z,24.35
2022-09-12T14:46:02.297Z,24.15
2022-09-12T14:48:07.231Z,24.17
2022-09-12T14:50:20.247Z,24.28
2022-09-12T14:52:32.511Z,24.41
2022-09-12T14:54:44.768Z,24.40
2022-09-12T14:56:57.905Z,24.49
2022-09-12T14:59:23.841Z,24.65
2022-09-12T15:01:29.333Z,24.64
2022-09-12T15:03:36.752Z,24.62
2022-09-12T15:05:52.242Z,24.78
2022-09-12T15:08:00.872Z,24.71
2022-09-12T15:10:09.008Z,24.75
2022-09-12T15:12:13.917Z,24.86
2022-09-12T15:14:18.666Z,24.89
2022-09-12T15:16:23.620Z,24.79
2022-09-12T15:18:29.262Z,24.73
2022-09-12T15:20:34.458Z,24.76
2022-09-12T15:22:40.420Z,24.79
2022-09-12T15:24:47.978Z,24.82
2022-09-12T15:26:53.521Z,24.87
2022-09-12T15:28:58.311Z,24.92
2022-09-12T15:31:09.448Z,24.94
2022-09-12T15:33:14.982Z,24.80
2022-09-12T15:35:21.343Z,24.65
2022-09-12T15:37:27.745Z,24.65
2022-09-12T15:39:43.242Z,24.58
2022-09-12T15:41:50.839Z,24.55
2022-09-12T15:43:56.447Z,24.33
2022-09-12T15:46:04.556Z,24.32
2022-09-12T15:48:10.305Z,24.20
2022-09-12T15:50:15.546Z,24.14
2022-09-12T15:52:20.377Z,24.04
2022-09-12T15:54:25.161Z,23.97
2022-09-12T15:56:29.902Z,23.93
2022-09-12T15:58:49.760Z,23.89
2022-09-12T16:01:02.767Z,23.85
2022-09-12T16:03:07.702Z,23.73
2022-09-12T16:05:17.280Z,23.64
2022-09-12T16:07:22.184Z,23.61
2022-09-12T16:09:27.442Z,23.62
2022-09-12T16:11:33.141Z,23.56
2022-09-12T16:13:40.631Z,23.46
2022-09-12T16:15:45.469Z,23.36
2022-09-12T16:17:50.819Z,23.30
2022-09-12T16:19:55.598Z,23.24
2022-09-12T16:22:00.352Z,23.17
2022-09-12T16:24:05.637Z,23.15
2022-09-12T16:26:10.469Z,23.03
2022-09-12T16:28:15.629Z,22.97
2022-09-12T16:30:22.742Z,22.88
2022-09-12T16:32:27.746Z,22.87
2022-09-12T16:34:32.518Z,22.82
2022-09-12T16:36:37.487Z,22.74
2022-09-12T16:38:45.795Z,22.65
2022-09-12T16:40:52.990Z,22.58
2022-09-12T16:42:57.762Z,22.54
2022-09-12T16:45:02.665Z,22.51
2022-09-12T16:47:10.031Z,22.47
2022-09-12T16:49:16.202Z,22.36
2022-09-12T16:51:23.027Z,22.32
2022-09-12T16:53:27.924Z,22.31
2022-09-12T16:55:32.727Z,22.29
2022-09-12T16:57:37.537Z,22.25
2022-09-12T16:59:43.884Z,22.20
2022-09-12T17:01:48.787Z,22.16
2022-09-12T17:03:57.930Z,22.09
2022-09-12T17:06:04.006Z,22.02
2022-09-12T17:08:09.624Z,22.01
2022-09-12T17:10:14.435Z,21.93
2022-09-12T17:12:19.221Z,21.91
2022-09-12T17:14:24.045Z,21.83
2022-09-12T17:16:29.353Z,21.80
2022-09-12T17:18:34.140Z,21.75
2022-09-12T17:20:41.504Z,21.74
2022-09-12T17:22:46.285Z,21.69
2022-09-12T17:24:54.001Z,21.63
2022-09-12T17:26:59.476Z,21.63
2022-09-12T17:29:04.323Z,21.61
2022-09-12T17:31:12.050Z,21.58
2022-09-12T17:33:16.829Z,21.54
2022-09-12T17:35:21.568Z,21.46
2022-09-12T17:37:28.903Z,21.44
2022-09-12T17:39:33.712Z,21.37
2022-09-12T17:41:38.603Z,21.32
2022-09-12T17:43:43.308Z,21.23
2022-09-12T17:45:48.131Z,21.16
2022-09-12T17:47:52.952Z,21.11
2022-09-12T17:50:09.379Z,21.06
2022-09-12T17:52:22.641Z,20.97
2022-09-12T17:54:30.097Z,20.91
2022-09-12T17:56:37.152Z,20.90
2022-09-12T17:58:42.254Z,20.87
2022-09-12T18:00:59.276Z,20.78
2022-09-12T18:03:05.480Z,20.73
2022-09-12T18:05:10.600Z,20.68
2022-09-12T18:07:15.573Z,20.58
2022-09-12T18:09:23.446Z,20.58
2022-09-12T18:11:31.476Z,20.55
2022-09-12T18:13:36.463Z,20.52
2022-09-12T18:15:41.414Z,20.50
2022-09-12T18:17:46.299Z,20.48
2022-09-12T18:19:54.069Z,20.47
2022-09-12T18:21:59.347Z,20.47
2022-09-12T18:24:04.708Z,20.48
2022-09-12T18:26:12.677Z,20.48
2022-09-12T18:28:20.120Z,20.45
2022-09-12T18:30:24.932Z,20.37
2022-09-12T18:32:29.662Z,20.32
2022-09-12T18:34:34.704Z,20.29
2022-09-12T18:36:39.471Z,20.27
2022-09-12T18:38:45.078Z,20.20
2022-09-12T18:40:50.036Z,20.15
2022-09-12T18:42:54.865Z,20.09
2022-09-12T18:45:04.458Z,20.06
2022-09-12T18:47:09.488Z,20.01
2022-09-12T18:49:14.291Z,19.99
2022-09-12T18:51:22.816Z,19.97
2022-09-12T18:53:27.593Z,19.97
2022-09-12T18:55:33.459Z,19.93
2022-09-12T18:57:40.594Z,19.93
2022-09-12T18:59:46.627Z,19.92
2022-09-12T19:01:57.205Z,19.92
2022-09-12T19:04:04.797Z,19.89
2022-09-12T19:06:11.857Z,19.89
2022-09-12T19:08:16.736Z,19.88
2022-09-12T19:10:21.698Z,19.85
2022-09-12T19:12:26.602Z,19.82
2022-09-12T19:14:31.430Z,19.81
2022-09-12T19:16:36.400Z,19.76
2022-09-12T19:18:44.193Z,19.74
2022-09-12T19:20:54.139Z,19.70
2022-09-12T19:22:58.884Z,19.66
2022-09-12T19:25:03.740Z,19.61
2022-09-12T19:27:08.669Z,19.61
2022-09-12T19:29:14.824Z,19.59
2022-09-12T19:31:22.050Z,19.57
2022-09-12T19:33:27.639Z,19.53
2022-09-12T19:35:37.221Z,19.52
2022-09-12T19:37:42.094Z,19.48
2022-09-12T19:39:47.135Z,19.44
2022-09-12T19:41:51.766Z,19.38
2022-09-12T19:43:58.076Z,19.36
2022-09-12T19:46:04.838Z,19.37
2022-09-12T19:48:09.833Z,19.35
2022-09-12T19:50:14.667Z,19.35
2022-09-12T19:52:22.364Z,19.36
2022-09-12T19:54:27.238Z,19.33
2022-09-12T19:56:32.187Z,19.31
2022-09-12T19:58:40.532Z,19.27
2022-09-12T20:00:45.778Z,19.27
2022-09-12T20:02:53.330Z,19.26
2022-09-12T20:04:58.104Z,19.24
2022-09-12T20:07:02.974Z,19.22
2022-09-12T20:09:10.426Z,19.24
2022-09-12T20:11:17.451Z,19.23
2022-09-12T20:13:22.227Z,19.20
2022-09-12T20:15:27.066Z,19.20
2022-09-12T20:17:31.966Z,19.18
2022-09-12T20:19:37.294Z,19.17
2022-09-12T20:21:42.714Z,19.16
2022-09-12T20:23:49.406Z,19.14
2022-09-12T20:25:56.752Z,19.10
2022-09-12T20:28:01.545Z,19.01
2022-09-12T20:30:07.324Z,18.96
2022-09-12T20:32:12.366Z,18.98
2022-09-12T20:34:19.090Z,18.92
2022-09-12T20:36:24.983Z,18.89
2022-09-12T20:38:29.727Z,18.84
2022-09-12T20:40:34.522Z,18.80
2022-09-12T20:42:41.891Z,18.77
2022-09-12T20:44:46.657Z,18.77
2022-09-12T20:46:51.567Z,18.67
2022-09-12T20:48:56.741Z,18.66
2022-09-12T20:51:01.377Z,18.59
2022-09-12T20:53:07.500Z,18.57
2022-09-12T20:55:13.045Z,18.51
2022-09-12T20:57:17.856Z,18.50
2022-09-12T20:59:25.232Z,18.47
2022-09-12T21:01:31.649Z,18.44
2022-09-12T21:03:39.646Z,18.42
2022-09-12T21:05:44.943Z,18.36
2022-09-12T21:07:49.442Z,18.31
2022-09-12T21:09:54.388Z,18.27
2022-09-12T21:11:59.157Z,18.25
2022-09-12T21:14:03.912Z,18.25
2022-09-12T21:16:13.881Z,18.20
2022-09-12T21:18:18.651Z,18.20
2022-09-12T21:20:23.539Z,18.19
2022-09-12T21:22:28.431Z,18.20
2022-09-12T21:24:33.200Z,18.20
2022-09-12T21:26:40.688Z,18.16
2022-09-12T21:28:45.696Z,18.16
2022-09-12T21:30:51.376Z,18.14
2022-09-12T21:32:58.763Z,18.14
2022-09-12T21:35:04.107Z,18.13
2022-09-12T21:37:08.958Z,18.08
2022-09-12T21:39:14.593Z,18.09
2022-09-12T21:41:20.326Z,18.10
2022-09-12T21:43:25.103Z,18.06
2022-09-12T21:45:30.659Z,18.07
2022-09-12T21:47:35.467Z,18.06
2022-09-12T21:49:42.787Z,18.04
2022-09-12T21:51:47.579Z,18.02
2022-09-12T21:53:52.310Z,17.98
2022-09-12T21:55:57.232Z,17.97
2022-09-12T21:58:01.941Z,17.93
2022-09-12T22:00:07.950Z,17.91
2022-09-12T22:02:13.928Z,17.88
2022-09-12T22:04:18.935Z,17.84
2022-09-12T22:06:26.229Z,17.82
2022-09-12T22:08:32.393Z,17.78
2022-09-12T22:10:38.565Z,17.76
2022-09-12T22:12:46.131Z,17.72
2022-09-12T22:14:55.424Z,17.66
2022-09-12T22:17:00.185Z,17.61
2022-09-12T22:19:04.950Z,17.54
2022-09-12T22:21:12.469Z,17.47
2022-09-12T22:23:32.282Z,17.40
2022-09-12T22:25:37.194Z,17.37
2022-09-12T22:27:41.971Z,17.31
2022-09-12T22:29:49.225Z,17.31
2022-09-12T22:31:54.007Z,17.30
2022-09-12T22:33:59.478Z,17.28
2022-09-12T22:36:04.477Z,17.27
2022-09-12T22:38:09.321Z,17.25
2022-09-12T22:40:17.067Z,17.26
2022-09-12T22:42:21.911Z,17.26
2022-09-12T22:44:26.784Z,17.24
2022-09-12T22:46:31.967Z,17.20
2022-09-12T22:48:37.433Z,17.17
2022-09-12T22:50:42.566Z,17.12
2022-09-12T22:52:49.625Z,17.10
2022-09-12T22:54:54.588Z,17.06
2022-09-12T22:57:02.134Z,17.00
2022-09-12T22:59:07.101Z,16.96
2022-09-12T23:01:12.798Z,16.94
2022-09-12T23:03:18.062Z,16.89
2022-09-12T23:05:22.857Z,16.86
2022-09-12T23:07:27.613Z,16.84
2022-09-12T23:09:35.365Z,16.81
2022-09-12T23:11:40.460Z,16.77
2022-09-12T23:13:49.725Z,16.75
2022-09-12T23:16:00.241Z,16.70
2022-09-12T23:18:05.361Z,16.71
2022-09-12T23:20:10.530Z,16.62
2022-09-12T23:22:15.329Z,16.57
2022-09-12T23:24:20.145Z,16.55
2022-09-12T23:26:28.245Z,16.54
2022-09-12T23:28:33.170Z,16.55
2022-09-12T23:30:40.501Z,16.55
2022-09-12T23:32:45.335Z,16.54
2022-09-12T23:34:50.155Z,16.56
2022-09-12T23:36:56.426Z,16.57
2022-09-12T23:39:01.226Z,16.56
2022-09-12T23:41:07.481Z,16.57
2022-09-12T23:43:12.231Z,16.58
2022-09-12T23:45:17.218Z,16.56
2022-09-12T23:47:24.570Z,16.57
2022-09-12T23:49:29.407Z,16.58
2022-09-12T23:51:34.149Z,16.59
2022-09-12T23:53:39.247Z,16.59
2022-09-12T23:55:44.939Z,16.58
2022-09-12T23:57:49.706Z,16.57
2022-09-12T23:59:54.525Z,16.56
